createdAt,value
2022-08-17T00:00:44.030Z,1003.70
2022-08-17T00:01:28.771Z,1003.68
2022-08-17T00:02:28.023Z,1003.70
2022-08-17T00:03:28.334Z,1003.67
2022-08-17T00:04:28.516Z,1003.66
2022-08-17T00:05:28.862Z,1003.66
2022-08-17T00:06:29.130Z,1003.65
2022-08-17T00:07:29.438Z,1003.63
2022-08-17T00:08:29.750Z,1003.63
2022-08-17T00:09:30.000Z,1003.63
2022-08-17T00:10:30.306Z,1003.61
2022-08-17T00:11:30.544Z,1003.63
2022-08-17T00:12:44.422Z,1003.61
2022-08-17T00:13:32.117Z,1003.61
2022-08-17T00:14:31.425Z,1003.62
2022-08-17T00:15:31.726Z,1003.68
2022-08-17T00:16:56.374Z,1003.66
2022-08-17T00:17:33.289Z,1003.65
2022-08-17T00:19:01.662Z,1003.68
2022-08-17T00:19:33.888Z,1003.70
2022-08-17T00:20:34.816Z,1003.67
2022-08-17T00:22:29.530Z,1003.70
2022-08-17T00:22:36.719Z,1003.68
2022-08-17T00:23:35.008Z,1003.70
2022-08-17T00:24:34.317Z,1003.70
2022-08-17T00:25:34.631Z,1003.67
2022-08-17T00:26:44.778Z,1003.64
2022-08-17T00:27:36.201Z,1003.63
2022-08-17T00:28:35.536Z,1003.61
2022-08-17T00:29:35.777Z,1003.63
2022-08-17T00:30:51.284Z,1003.63
2022-08-17T00:31:37.341Z,1003.66
2022-08-17T00:33:10.814Z,1003.59
2022-08-17T00:33:37.941Z,1003.61
2022-08-17T00:34:37.260Z,1003.61
2022-08-17T00:35:37.572Z,1003.58
2022-08-17T00:36:37.851Z,1003.57
2022-08-17T00:37:38.106Z,1003.59
2022-08-17T00:38:38.427Z,1003.56
2022-08-17T00:39:38.761Z,1003.59
2022-08-17T00:40:44.327Z,1003.59
2022-08-17T00:41:42.711Z,1003.58
2022-08-17T00:42:39.542Z,1003.57
2022-08-17T00:43:39.869Z,1003.60
2022-08-17T00:44:40.120Z,1003.55
2022-08-17T00:45:40.420Z,1003.57
2022-08-17T00:46:40.719Z,1003.54
2022-08-17T00:47:41.014Z,1003.53
2022-08-17T00:48:41.340Z,1003.51
2022-08-17T00:49:41.633Z,1003.49
2022-08-17T00:50:41.891Z,1003.45
2022-08-17T00:51:42.195Z,1003.50
2022-08-17T00:52:42.566Z,1003.54
2022-08-17T00:53:42.754Z,1003.50
2022-08-17T00:54:43.017Z,1003.50
2022-08-17T00:55:43.302Z,1003.52
2022-08-17T00:56:43.625Z,1003.55
2022-08-17T00:57:43.883Z,1003.52
2022-08-17T00:58:44.216Z,1003.49
2022-08-17T00:59:44.463Z,1003.49
2022-08-17T01:00:44.782Z,1003.47
2022-08-17T01:01:45.052Z,1003.46
2022-08-17T01:02:45.344Z,1003.48
2022-08-17T01:03:45.670Z,1003.45
2022-08-17T01:04:45.961Z,1003.44
2022-08-17T01:05:46.294Z,1003.37
2022-08-17T01:06:46.513Z,1003.36
2022-08-17T01:07:46.812Z,1003.39
2022-08-17T01:08:47.171Z,1003.39
2022-08-17T01:09:47.426Z,1003.37
2022-08-17T01:10:57.342Z,1003.40
2022-08-17T01:11:48.915Z,1003.39
2022-08-17T01:12:48.313Z,1003.40
2022-08-17T01:13:48.576Z,1003.39
2022-08-17T01:14:48.830Z,1003.42
2022-08-17T01:15:49.130Z,1003.41
2022-08-17T01:16:49.479Z,1003.40
2022-08-17T01:17:49.715Z,1003.38
2022-08-17T01:18:50.031Z,1003.41
2022-08-17T01:19:50.408Z,1003.36
2022-08-17T01:20:50.577Z,1003.38
2022-08-17T01:21:50.895Z,1003.36
2022-08-17T01:22:51.390Z,1003.40
2022-08-17T01:23:51.488Z,1003.39
2022-08-17T01:24:51.743Z,1003.39
2022-08-17T01:25:52.046Z,1003.38
2022-08-17T01:26:52.360Z,1003.36
2022-08-17T01:27:52.658Z,1003.39
2022-08-17T01:28:55.347Z,1003.40
2022-08-17T01:29:53.278Z,1003.38
2022-08-17T01:30:58.042Z,1003.42
2022-08-17T01:31:54.804Z,1003.44
2022-08-17T01:32:54.127Z,1003.43
2022-08-17T01:33:54.451Z,1003.45
2022-08-17T01:34:54.697Z,1003.44
2022-08-17T01:35:55.017Z,1003.45
2022-08-17T01:36:55.326Z,1003.44
2022-08-17T01:37:55.640Z,1003.43
2022-08-17T01:38:55.950Z,1003.43
2022-08-17T01:39:56.279Z,1003.51
2022-08-17T01:40:57.383Z,1003.51
2022-08-17T01:41:56.807Z,1003.56
2022-08-17T01:42:57.098Z,1003.55
2022-08-17T01:43:57.434Z,1003.51
2022-08-17T01:44:57.684Z,1003.52
2022-08-17T01:46:03.624Z,1003.55
2022-08-17T01:46:59.231Z,1003.49
2022-08-17T01:47:58.510Z,1003.51
2022-08-17T01:48:58.830Z,1003.51
2022-08-17T01:49:59.095Z,1003.50
2022-08-17T01:50:59.397Z,1003.51
2022-08-17T01:51:59.661Z,1003.50
2022-08-17T01:52:59.962Z,1003.50
2022-08-17T01:54:00.283Z,1003.51
2022-08-17T01:55:00.527Z,1003.48
2022-08-17T01:56:00.851Z,1003.52
2022-08-17T01:57:01.088Z,1003.53
2022-08-17T01:58:01.411Z,1003.50
2022-08-17T01:59:01.667Z,1003.51
2022-08-17T02:00:01.989Z,1003.54
2022-08-17T02:01:02.307Z,1003.52
2022-08-17T02:02:02.573Z,1003.51
2022-08-17T02:03:02.872Z,1003.56
2022-08-17T02:04:03.212Z,1003.53
2022-08-17T02:05:03.464Z,1003.53
2022-08-17T02:06:03.750Z,1003.57
2022-08-17T02:07:04.072Z,1003.60
2022-08-17T02:08:04.337Z,1003.56
2022-08-17T02:09:04.608Z,1003.57
2022-08-17T02:10:04.870Z,1003.54
2022-08-17T02:11:06.109Z,1003.52
2022-08-17T02:12:38.057Z,1003.50
2022-08-17T02:13:06.662Z,1003.53
2022-08-17T02:14:05.995Z,1003.50
2022-08-17T02:15:06.304Z,1003.50
2022-08-17T02:16:06.562Z,1003.51
2022-08-17T02:17:06.858Z,1003.45
2022-08-17T02:18:07.141Z,1003.52
2022-08-17T02:19:07.452Z,1003.47
2022-08-17T02:20:07.742Z,1003.44
2022-08-17T02:21:08.045Z,1003.46
2022-08-17T02:22:08.342Z,1003.48
2022-08-17T02:23:08.656Z,1003.44
2022-08-17T02:24:08.975Z,1003.46
2022-08-17T02:25:09.221Z,1003.40
2022-08-17T02:26:09.515Z,1003.40
2022-08-17T02:27:10.753Z,1003.42
2022-08-17T02:28:10.076Z,1003.41
2022-08-17T02:29:10.444Z,1003.39
2022-08-17T02:30:59.984Z,1003.35
2022-08-17T02:31:11.980Z,1003.40
2022-08-17T02:32:11.307Z,1003.42
2022-08-17T02:33:12.547Z,1003.38
2022-08-17T02:34:11.892Z,1003.40
2022-08-17T02:35:12.157Z,1003.40
2022-08-17T02:36:12.465Z,1003.41
2022-08-17T02:37:12.745Z,1003.41
2022-08-17T02:38:13.060Z,1003.41
2022-08-17T02:39:13.366Z,1003.43
2022-08-17T02:40:13.683Z,1003.40
2022-08-17T02:41:13.986Z,1003.43
2022-08-17T02:42:14.292Z,1003.43
2022-08-17T02:43:14.574Z,1003.42
2022-08-17T02:44:14.874Z,1003.40
2022-08-17T02:45:16.116Z,1003.39
2022-08-17T02:46:15.415Z,1003.42
2022-08-17T02:47:15.704Z,1003.41
2022-08-17T02:48:16.006Z,1003.44
2022-08-17T02:49:17.267Z,1003.42
2022-08-17T02:50:16.592Z,1003.37
2022-08-17T02:51:16.888Z,1003.46
2022-08-17T02:52:17.166Z,1003.40
2022-08-17T02:53:18.419Z,1003.44
2022-08-17T02:54:40.053Z,1003.41
2022-08-17T02:55:19.015Z,1003.37
2022-08-17T02:56:18.325Z,1003.40
2022-08-17T02:57:18.621Z,1003.39
2022-08-17T02:58:18.905Z,1003.43
2022-08-17T02:59:20.176Z,1003.44
2022-08-17T03:00:19.481Z,1003.48
2022-08-17T03:01:19.812Z,1003.46
2022-08-17T03:02:20.087Z,1003.46
2022-08-17T03:03:20.381Z,1003.43
2022-08-17T03:04:20.670Z,1003.48
2022-08-17T03:05:20.926Z,1003.46
2022-08-17T03:06:21.231Z,1003.42
2022-08-17T03:07:21.527Z,1003.42
2022-08-17T03:08:21.829Z,1003.39
2022-08-17T03:09:22.127Z,1003.41
2022-08-17T03:10:22.431Z,1003.39
2022-08-17T03:11:22.717Z,1003.39
2022-08-17T03:12:23.007Z,1003.38
2022-08-17T03:13:23.310Z,1003.40
2022-08-17T03:14:25.961Z,1003.42
2022-08-17T03:15:23.853Z,1003.33
2022-08-17T03:16:24.154Z,1003.36
2022-08-17T03:17:24.474Z,1003.34
2022-08-17T03:18:26.228Z,1003.33
2022-08-17T03:19:25.025Z,1003.33
2022-08-17T03:20:25.309Z,1003.34
2022-08-17T03:21:25.622Z,1003.37
2022-08-17T03:22:37.176Z,1003.36
2022-08-17T03:23:27.348Z,1003.31
2022-08-17T03:24:28.901Z,1003.35
2022-08-17T03:25:26.633Z,1003.32
2022-08-17T03:26:29.816Z,1003.30
2022-08-17T03:27:27.239Z,1003.25
2022-08-17T03:28:27.520Z,1003.28
2022-08-17T03:29:27.820Z,1003.28
2022-08-17T03:30:28.138Z,1003.31
2022-08-17T03:31:28.433Z,1003.28
2022-08-17T03:32:28.723Z,1003.29
2022-08-17T03:33:29.009Z,1003.30
2022-08-17T03:34:29.321Z,1003.33
2022-08-17T03:35:29.595Z,1003.36
2022-08-17T03:36:29.886Z,1003.37
2022-08-17T03:37:31.134Z,1003.38
2022-08-17T03:38:30.453Z,1003.36
2022-08-17T03:39:31.792Z,1003.40
2022-08-17T03:40:55.305Z,1003.34
2022-08-17T03:41:32.221Z,1003.37
2022-08-17T03:42:32.976Z,1003.39
2022-08-17T03:43:31.794Z,1003.36
2022-08-17T03:44:32.125Z,1003.39
2022-08-17T03:45:32.407Z,1003.36
2022-08-17T03:46:34.961Z,1003.37
2022-08-17T03:47:32.973Z,1003.37
2022-08-17T03:48:33.298Z,1003.42
2022-08-17T03:49:33.576Z,1003.45
2022-08-17T03:50:33.844Z,1003.43
2022-08-17T03:51:34.156Z,1003.44
2022-08-17T03:52:34.424Z,1003.46
2022-08-17T03:53:34.737Z,1003.48
2022-08-17T03:54:35.000Z,1003.48
2022-08-17T03:55:36.355Z,1003.45
2022-08-17T03:56:35.534Z,1003.47
2022-08-17T03:57:35.855Z,1003.45
2022-08-17T03:58:36.105Z,1003.49
2022-08-17T03:59:36.418Z,1003.46
2022-08-17T04:00:36.693Z,1003.45
2022-08-17T04:01:36.968Z,1003.46
2022-08-17T04:02:37.248Z,1003.47
2022-08-17T04:03:37.524Z,1003.42
2022-08-17T04:04:37.857Z,1003.45
2022-08-17T04:05:38.127Z,1003.47
2022-08-17T04:06:38.434Z,1003.47
2022-08-17T04:07:38.728Z,1003.51
2022-08-17T04:08:39.035Z,1003.50
2022-08-17T04:09:39.369Z,1003.48
2022-08-17T04:10:45.048Z,1003.47
2022-08-17T04:11:40.891Z,1003.44
2022-08-17T04:12:40.213Z,1003.45
2022-08-17T04:13:40.521Z,1003.50
2022-08-17T04:14:52.162Z,1003.49
2022-08-17T04:15:42.109Z,1003.53
2022-08-17T04:16:41.435Z,1003.53
2022-08-17T04:17:41.749Z,1003.54
2022-08-17T04:18:42.077Z,1003.55
2022-08-17T04:19:42.406Z,1003.51
2022-08-17T04:20:42.687Z,1003.54
2022-08-17T04:21:42.995Z,1003.56
2022-08-17T04:22:43.299Z,1003.56
2022-08-17T04:23:44.556Z,1003.54
2022-08-17T04:24:43.908Z,1003.54
2022-08-17T04:25:44.183Z,1003.57
2022-08-17T04:26:53.053Z,1003.57
2022-08-17T04:27:45.743Z,1003.55
2022-08-17T04:28:45.077Z,1003.61
2022-08-17T04:29:50.013Z,1003.59
2022-08-17T04:30:46.652Z,1003.56
2022-08-17T04:31:45.965Z,1003.61
2022-08-17T04:33:03.639Z,1003.59
2022-08-17T04:33:47.600Z,1003.60
2022-08-17T04:34:46.818Z,1003.62
2022-08-17T04:35:47.161Z,1003.59
2022-08-17T04:36:50.115Z,1003.63
2022-08-17T04:37:47.717Z,1003.60
2022-08-17T04:38:48.055Z,1003.63
2022-08-17T04:39:48.445Z,1003.60
2022-08-17T04:40:48.708Z,1003.59
2022-08-17T04:41:49.039Z,1003.61
2022-08-17T04:42:49.580Z,1003.59
2022-08-17T04:43:50.639Z,1003.58
2022-08-17T04:44:50.022Z,1003.57
2022-08-17T04:45:55.422Z,1003.54
2022-08-17T04:46:51.561Z,1003.55
2022-08-17T04:47:50.872Z,1003.51
2022-08-17T04:48:51.203Z,1003.55
2022-08-17T04:49:51.554Z,1003.54
2022-08-17T04:50:51.851Z,1003.55
2022-08-17T04:51:55.844Z,1003.54
2022-08-17T04:52:53.428Z,1003.56
2022-08-17T04:53:54.030Z,1003.54
2022-08-17T04:54:53.051Z,1003.56
2022-08-17T04:55:53.464Z,1003.61
2022-08-17T04:56:53.602Z,1003.62
2022-08-17T04:57:53.952Z,1003.63
2022-08-17T04:58:54.243Z,1003.65
2022-08-17T04:59:54.604Z,1003.64
2022-08-17T05:00:54.838Z,1003.65
2022-08-17T05:01:55.066Z,1003.67
2022-08-17T05:02:55.831Z,1003.68
2022-08-17T05:03:55.640Z,1003.62
2022-08-17T05:04:55.981Z,1003.65
2022-08-17T05:05:56.226Z,1003.63
2022-08-17T05:06:56.541Z,1003.57
2022-08-17T05:07:56.863Z,1003.58
2022-08-17T05:08:57.208Z,1003.58
2022-08-17T05:09:57.516Z,1003.55
2022-08-17T05:10:57.832Z,1003.61
2022-08-17T05:11:58.152Z,1003.64
2022-08-17T05:12:58.496Z,1003.62
2022-08-17T05:13:58.831Z,1003.62
2022-08-17T05:14:59.162Z,1003.67
2022-08-17T05:15:59.474Z,1003.65
2022-08-17T05:16:59.786Z,1003.61
2022-08-17T05:18:00.052Z,1003.61
2022-08-17T05:19:00.516Z,1003.61
2022-08-17T05:20:00.677Z,1003.53
2022-08-17T05:21:01.009Z,1003.55
2022-08-17T05:22:01.354Z,1003.58
2022-08-17T05:23:01.606Z,1003.58
2022-08-17T05:24:01.931Z,1003.53
2022-08-17T05:25:03.138Z,1003.55
2022-08-17T05:26:02.375Z,1003.48
2022-08-17T05:27:06.296Z,1003.51
2022-08-17T05:28:02.926Z,1003.44
2022-08-17T05:29:03.157Z,1003.42
2022-08-17T05:30:03.512Z,1003.40
2022-08-17T05:31:03.815Z,1003.47
2022-08-17T05:32:04.137Z,1003.48
2022-08-17T05:33:05.421Z,1003.50
2022-08-17T05:34:04.658Z,1003.53
2022-08-17T05:35:04.919Z,1003.53
2022-08-17T05:36:05.230Z,1003.56
2022-08-17T05:37:05.589Z,1003.54
2022-08-17T05:38:05.875Z,1003.52
2022-08-17T05:39:06.116Z,1003.52
2022-08-17T05:40:06.527Z,1003.55
2022-08-17T05:41:06.730Z,1003.57
2022-08-17T05:42:07.080Z,1003.52
2022-08-17T05:43:07.322Z,1003.57
2022-08-17T05:44:07.630Z,1003.61
2022-08-17T05:45:07.880Z,1003.65
2022-08-17T05:46:08.224Z,1003.63
2022-08-17T05:47:09.977Z,1003.60
2022-08-17T05:48:08.700Z,1003.66
2022-08-17T05:49:08.962Z,1003.61
2022-08-17T05:50:09.808Z,1003.67
2022-08-17T05:51:09.614Z,1003.58
2022-08-17T05:52:09.850Z,1003.62
2022-08-17T05:53:10.085Z,1003.61
2022-08-17T05:54:10.335Z,1003.62
2022-08-17T05:55:10.590Z,1003.68
2022-08-17T05:56:24.006Z,1003.64
2022-08-17T05:57:12.182Z,1003.66
2022-08-17T05:58:11.440Z,1003.62
2022-08-17T05:59:11.768Z,1003.59
2022-08-17T06:00:12.036Z,1003.59
2022-08-17T06:01:12.379Z,1003.52
2022-08-17T06:02:12.561Z,1003.55
2022-08-17T06:03:12.791Z,1003.54
2022-08-17T06:04:13.133Z,1003.62
2022-08-17T06:05:13.412Z,1003.60
2022-08-17T06:06:13.590Z,1003.64
2022-08-17T06:07:13.834Z,1003.70
2022-08-17T06:08:14.077Z,1003.69
2022-08-17T06:09:14.305Z,1003.66
2022-08-17T06:10:14.572Z,1003.70
2022-08-17T06:11:14.893Z,1003.72
2022-08-17T06:12:19.898Z,1003.69
2022-08-17T06:13:15.471Z,1003.64
2022-08-17T06:14:15.728Z,1003.71
2022-08-17T06:15:16.082Z,1003.73
2022-08-17T06:16:26.180Z,1003.78
2022-08-17T06:17:17.681Z,1003.90
2022-08-17T06:18:19.110Z,1004.00
2022-08-17T06:19:17.161Z,1004.12
2022-08-17T06:20:17.410Z,1004.16
2022-08-17T06:21:17.646Z,1004.15
2022-08-17T06:22:18.935Z,1004.14
2022-08-17T06:23:18.210Z,1004.12
2022-08-17T06:24:18.519Z,1004.13
2022-08-17T06:25:18.754Z,1004.16
2022-08-17T06:26:19.088Z,1004.21
2022-08-17T06:27:19.405Z,1004.19
2022-08-17T06:28:19.745Z,1004.19
2022-08-17T06:29:20.074Z,1004.20
2022-08-17T06:30:20.442Z,1004.12
2022-08-17T06:31:20.730Z,1004.05
2022-08-17T06:32:21.074Z,1004.03
2022-08-17T06:33:21.405Z,1003.97
2022-08-17T06:34:21.762Z,1003.99
2022-08-17T06:35:22.105Z,1004.04
2022-08-17T06:36:22.392Z,1004.03
2022-08-17T06:37:22.725Z,1004.00
2022-08-17T06:38:38.480Z,1003.94
2022-08-17T06:39:24.326Z,1004.02
2022-08-17T06:40:23.520Z,1003.99
2022-08-17T06:41:23.815Z,1004.01
2022-08-17T06:43:02.011Z,1003.97
2022-08-17T06:43:25.445Z,1003.98
2022-08-17T06:44:49.700Z,1003.97
2022-08-17T06:45:25.976Z,1003.96
2022-08-17T06:46:25.231Z,1003.97
2022-08-17T06:47:28.609Z,1003.96
2022-08-17T06:48:25.748Z,1003.90
2022-08-17T06:49:26.072Z,1004.01
2022-08-17T06:50:26.364Z,1004.05
2022-08-17T06:51:26.548Z,1004.07
2022-08-17T06:52:55.676Z,1004.09
2022-08-17T06:53:28.193Z,1004.01
2022-08-17T06:54:27.444Z,1003.97
2022-08-17T06:55:27.681Z,1003.96
2022-08-17T06:56:53.394Z,1003.97
2022-08-17T06:57:29.283Z,1003.94
2022-08-17T06:58:29.708Z,1003.98
2022-08-17T06:59:35.682Z,1004.03
2022-08-17T07:00:30.206Z,1004.04
2022-08-17T07:01:29.488Z,1004.05
2022-08-17T07:02:52.122Z,1004.05
2022-08-17T07:03:30.973Z,1004.03
2022-08-17T07:04:30.251Z,1004.04
2022-08-17T07:05:30.592Z,1004.02
2022-08-17T07:06:30.892Z,1004.03
2022-08-17T07:07:32.184Z,1004.05
2022-08-17T07:08:34.682Z,1004.02
2022-08-17T07:09:31.712Z,1004.05
2022-08-17T07:10:31.965Z,1004.07
2022-08-17T07:11:32.282Z,1004.05
2022-08-17T07:12:32.489Z,1004.06
2022-08-17T07:13:32.764Z,1004.04
2022-08-17T07:14:33.006Z,1004.07
2022-08-17T07:15:33.254Z,1004.09
2022-08-17T07:16:33.565Z,1004.10
2022-08-17T07:17:46.600Z,1004.09
2022-08-17T07:18:35.079Z,1004.09
2022-08-17T07:19:34.324Z,1004.14
2022-08-17T07:20:34.566Z,1004.17
2022-08-17T07:21:34.879Z,1004.15
2022-08-17T07:22:54.785Z,1004.17
2022-08-17T07:23:36.413Z,1004.20
2022-08-17T07:24:35.667Z,1004.19
2022-08-17T07:25:35.922Z,1004.25
2022-08-17T07:26:36.226Z,1004.24
2022-08-17T07:27:36.461Z,1004.29
2022-08-17T07:28:36.683Z,1004.26
2022-08-17T07:29:36.934Z,1004.32
2022-08-17T07:30:46.954Z,1004.29
2022-08-17T07:31:38.467Z,1004.32
2022-08-17T07:32:37.703Z,1004.31
2022-08-17T07:33:37.947Z,1004.34
2022-08-17T07:34:38.196Z,1004.34
2022-08-17T07:35:41.426Z,1004.31
2022-08-17T07:36:39.723Z,1004.36
2022-08-17T07:37:38.961Z,1004.30
2022-08-17T07:38:39.196Z,1004.32
2022-08-17T07:40:14.919Z,1004.33
2022-08-17T07:40:40.768Z,1004.38
2022-08-17T07:41:57.406Z,1004.40
2022-08-17T07:42:46.570Z,1004.45
2022-08-17T07:43:41.607Z,1004.48
2022-08-17T07:44:40.838Z,1004.50
2022-08-17T07:45:41.097Z,1004.52
2022-08-17T07:46:41.329Z,1004.51
2022-08-17T07:47:41.636Z,1004.55
2022-08-17T07:48:41.998Z,1004.53
2022-08-17T07:49:42.240Z,1004.55
2022-08-17T07:50:42.527Z,1004.52
2022-08-17T07:51:43.821Z,1004.53
2022-08-17T07:52:50.619Z,1004.58
2022-08-17T07:53:44.351Z,1004.57
2022-08-17T07:54:43.586Z,1004.58
2022-08-17T07:55:43.861Z,1004.60
2022-08-17T07:56:44.071Z,1004.58
2022-08-17T07:57:44.320Z,1004.62
2022-08-17T07:58:44.555Z,1004.63
2022-08-17T07:59:44.781Z,1004.63
2022-08-17T08:00:52.316Z,1004.61
2022-08-17T08:01:45.389Z,1004.57
2022-08-17T08:02:45.663Z,1004.61
2022-08-17T08:03:45.892Z,1004.61
2022-08-17T08:05:00.740Z,1004.54
2022-08-17T08:05:49.998Z,1004.50
2022-08-17T08:06:46.844Z,1004.51
2022-08-17T08:07:47.036Z,1004.50
2022-08-17T08:08:47.259Z,1004.45
2022-08-17T08:09:47.614Z,1004.47
2022-08-17T08:10:47.836Z,1004.50
2022-08-17T08:11:48.081Z,1004.49
2022-08-17T08:12:48.315Z,1004.48
2022-08-17T08:13:49.595Z,1004.44
2022-08-17T08:14:48.859Z,1004.41
2022-08-17T08:15:54.342Z,1004.42
2022-08-17T08:16:50.377Z,1004.45
2022-08-17T08:17:49.747Z,1004.47
2022-08-17T08:18:55.872Z,1004.47
2022-08-17T08:19:51.185Z,1004.49
2022-08-17T08:20:51.949Z,1004.44
2022-08-17T08:21:50.728Z,1004.46
2022-08-17T08:22:51.047Z,1004.54
2022-08-17T08:23:51.374Z,1004.52
2022-08-17T08:24:51.595Z,1004.54
2022-08-17T08:25:53.555Z,1004.57
2022-08-17T08:26:52.188Z,1004.63
2022-08-17T08:27:52.566Z,1004.64
2022-08-17T08:28:52.769Z,1004.75
2022-08-17T08:29:52.995Z,1004.74
2022-08-17T08:30:53.357Z,1004.79
2022-08-17T08:31:53.598Z,1004.83
2022-08-17T08:32:53.938Z,1004.84
2022-08-17T08:33:54.198Z,1004.88
2022-08-17T08:35:02.290Z,1004.93
2022-08-17T08:35:55.742Z,1004.98
2022-08-17T08:37:12.982Z,1005.01
2022-08-17T08:37:56.268Z,1005.02
2022-08-17T08:38:55.516Z,1005.11
2022-08-17T08:39:55.809Z,1005.10
2022-08-17T08:40:56.006Z,1005.16
2022-08-17T08:41:56.357Z,1005.13
2022-08-17T08:42:56.614Z,1005.14
2022-08-17T08:43:56.817Z,1005.06
2022-08-17T08:45:00.663Z,1005.06
2022-08-17T08:45:58.338Z,1005.09
2022-08-17T08:46:57.623Z,1005.03
2022-08-17T08:47:57.820Z,1005.00
2022-08-17T08:49:00.851Z,1004.95
2022-08-17T08:50:06.036Z,1004.98
2022-08-17T08:50:59.738Z,1004.95
2022-08-17T08:51:58.999Z,1004.95
2022-08-17T08:52:59.239Z,1004.95
2022-08-17T08:53:59.493Z,1004.99
2022-08-17T08:54:59.719Z,1005.03
2022-08-17T08:55:59.983Z,1004.98
2022-08-17T08:57:23.218Z,1005.01
2022-08-17T08:58:01.555Z,1005.03
2022-08-17T08:59:00.820Z,1005.05
2022-08-17T09:00:01.060Z,1005.05
2022-08-17T09:01:01.358Z,1005.10
2022-08-17T09:02:01.676Z,1005.13
2022-08-17T09:03:01.980Z,1005.16
2022-08-17T09:04:18.179Z,1005.16
2022-08-17T09:05:14.325Z,1005.08
2022-08-17T09:06:03.825Z,1005.10
2022-08-17T09:07:03.107Z,1005.07
2022-08-17T09:08:03.401Z,1005.05
2022-08-17T09:09:03.655Z,1005.07
2022-08-17T09:10:03.894Z,1005.06
2022-08-17T09:11:04.133Z,1005.10
2022-08-17T09:12:04.475Z,1005.09
2022-08-17T09:13:09.850Z,1005.11
2022-08-17T09:14:05.925Z,1005.11
2022-08-17T09:15:09.558Z,1005.11
2022-08-17T09:16:06.595Z,1005.11
2022-08-17T09:17:05.854Z,1005.15
2022-08-17T09:19:02.230Z,1005.11
2022-08-17T09:19:07.518Z,1005.13
2022-08-17T09:20:06.716Z,1005.12
2022-08-17T09:21:06.945Z,1005.08
2022-08-17T09:22:07.202Z,1005.09
2022-08-17T09:23:07.427Z,1005.11
2022-08-17T09:24:07.676Z,1005.06
2022-08-17T09:25:07.898Z,1005.10
2022-08-17T09:26:08.148Z,1005.14
2022-08-17T09:27:08.416Z,1005.18
2022-08-17T09:28:08.714Z,1005.20
2022-08-17T09:29:08.968Z,1005.17
2022-08-17T09:30:09.220Z,1005.20
2022-08-17T09:31:09.445Z,1005.18
2022-08-17T09:32:09.829Z,1005.18
2022-08-17T09:33:10.136Z,1005.18
2022-08-17T09:34:10.377Z,1005.21
2022-08-17T09:35:10.627Z,1005.17
2022-08-17T09:36:10.880Z,1005.19
2022-08-17T09:37:11.120Z,1005.21
2022-08-17T09:38:11.469Z,1005.22
2022-08-17T09:39:11.686Z,1005.22
2022-08-17T09:40:12.033Z,1005.20
2022-08-17T09:41:12.246Z,1005.21
2022-08-17T09:42:12.496Z,1005.12
2022-08-17T09:43:12.754Z,1005.10
2022-08-17T09:44:23.382Z,1005.09
2022-08-17T09:45:14.257Z,1005.07
2022-08-17T09:46:13.516Z,1005.08
2022-08-17T09:47:13.770Z,1005.05
2022-08-17T09:48:14.116Z,1005.00
2022-08-17T09:49:14.368Z,1005.03
2022-08-17T09:50:14.608Z,1004.98
2022-08-17T09:51:14.864Z,1005.03
2022-08-17T09:52:15.131Z,1004.95
2022-08-17T09:53:15.402Z,1004.97
2022-08-17T09:54:37.942Z,1004.98
2022-08-17T09:55:16.934Z,1005.03
2022-08-17T09:56:16.214Z,1004.99
2022-08-17T09:57:29.650Z,1004.94
2022-08-17T09:58:17.719Z,1004.99
2022-08-17T09:59:17.081Z,1004.94
2022-08-17T10:00:17.502Z,1004.99
2022-08-17T10:01:17.611Z,1004.99
2022-08-17T10:02:17.884Z,1004.95
2022-08-17T10:03:18.070Z,1004.95
2022-08-17T10:04:20.224Z,1004.99
2022-08-17T10:05:18.611Z,1004.98
2022-08-17T10:06:22.284Z,1005.02
2022-08-17T10:07:19.125Z,1005.00
2022-08-17T10:08:21.714Z,1005.07
2022-08-17T10:09:19.569Z,1005.05
2022-08-17T10:10:19.822Z,1005.04
2022-08-17T10:11:20.184Z,1005.03
2022-08-17T10:12:20.553Z,1004.96
2022-08-17T10:13:20.664Z,1004.99
2022-08-17T10:14:37.457Z,1004.95
2022-08-17T10:15:22.172Z,1004.97
2022-08-17T10:16:21.433Z,1004.96
2022-08-17T10:17:21.691Z,1004.97
2022-08-17T10:18:21.926Z,1004.95
2022-08-17T10:19:22.173Z,1004.96
2022-08-17T10:20:22.415Z,1005.01
2022-08-17T10:21:22.666Z,1005.02
2022-08-17T10:22:35.137Z,1005.03
2022-08-17T10:23:24.207Z,1005.04
2022-08-17T10:24:23.455Z,1004.99
2022-08-17T10:25:26.136Z,1005.03
2022-08-17T10:26:25.107Z,1005.06
2022-08-17T10:27:24.378Z,1005.06
2022-08-17T10:28:28.879Z,1005.03
2022-08-17T10:29:25.885Z,1005.06
2022-08-17T10:30:25.142Z,1005.08
2022-08-17T10:31:40.812Z,1005.12
2022-08-17T10:32:26.697Z,1005.10
2022-08-17T10:33:25.958Z,1005.08
2022-08-17T10:34:26.194Z,1005.12
2022-08-17T10:35:26.440Z,1005.17
2022-08-17T10:36:26.675Z,1005.22
2022-08-17T10:37:26.948Z,1005.21
2022-08-17T10:38:27.156Z,1005.17
2022-08-17T10:39:27.445Z,1005.14
2022-08-17T10:40:27.735Z,1005.18
2022-08-17T10:41:27.976Z,1005.16
2022-08-17T10:42:30.854Z,1005.22
2022-08-17T10:43:28.516Z,1005.28
2022-08-17T10:44:38.415Z,1005.29
2022-08-17T10:45:30.066Z,1005.32
2022-08-17T10:46:31.389Z,1005.29
2022-08-17T10:47:38.262Z,1005.29
2022-08-17T10:48:30.898Z,1005.29
2022-08-17T10:49:30.157Z,1005.31
2022-08-17T10:50:30.387Z,1005.27
2022-08-17T10:51:30.637Z,1005.22
2022-08-17T10:52:30.897Z,1005.25
2022-08-17T10:53:31.127Z,1005.21
2022-08-17T10:54:31.370Z,1005.22
2022-08-17T10:55:31.631Z,1005.16
2022-08-17T10:56:31.859Z,1005.22
2022-08-17T10:57:32.144Z,1005.22
2022-08-17T10:58:32.359Z,1005.21
2022-08-17T10:59:32.599Z,1005.27
2022-08-17T11:00:32.986Z,1005.26
2022-08-17T11:01:33.186Z,1005.24
2022-08-17T11:02:33.433Z,1005.21
2022-08-17T11:03:33.674Z,1005.21
2022-08-17T11:04:33.900Z,1005.28
2022-08-17T11:05:34.162Z,1005.22
2022-08-17T11:06:34.423Z,1005.26
2022-08-17T11:07:34.703Z,1005.24
2022-08-17T11:08:34.914Z,1005.26
2022-08-17T11:09:35.164Z,1005.25
2022-08-17T11:10:35.433Z,1005.29
2022-08-17T11:11:35.726Z,1005.32
2022-08-17T11:12:35.924Z,1005.29
2022-08-17T11:13:36.145Z,1005.31
2022-08-17T11:14:36.398Z,1005.29
2022-08-17T11:15:36.653Z,1005.29
2022-08-17T11:16:36.902Z,1005.27
2022-08-17T11:17:37.170Z,1005.27
2022-08-17T11:18:37.422Z,1005.25
2022-08-17T11:19:37.687Z,1005.25
2022-08-17T11:20:37.943Z,1005.25
2022-08-17T11:21:38.195Z,1005.27
2022-08-17T11:22:38.453Z,1005.25
2022-08-17T11:23:38.693Z,1005.23
2022-08-17T11:24:38.953Z,1005.23
2022-08-17T11:25:39.261Z,1005.27
2022-08-17T11:26:39.497Z,1005.28
2022-08-17T11:27:39.775Z,1005.20
2022-08-17T11:28:39.998Z,1005.21
2022-08-17T11:29:40.246Z,1005.20
2022-08-17T11:30:40.527Z,1005.21
2022-08-17T11:31:40.859Z,1005.15
2022-08-17T11:32:47.457Z,1005.20
2022-08-17T11:33:42.462Z,1005.21
2022-08-17T11:34:41.769Z,1005.20
2022-08-17T11:35:41.968Z,1005.16
2022-08-17T11:36:42.197Z,1005.16
2022-08-17T11:37:42.478Z,1005.18
2022-08-17T11:38:42.790Z,1005.20
2022-08-17T11:39:43.128Z,1005.19
2022-08-17T11:40:43.339Z,1005.16
2022-08-17T11:41:43.611Z,1005.17
2022-08-17T11:42:43.906Z,1005.19
2022-08-17T11:43:44.148Z,1005.12
2022-08-17T11:44:44.407Z,1005.13
2022-08-17T11:45:44.668Z,1005.14
2022-08-17T11:46:44.950Z,1005.15
2022-08-17T11:48:02.214Z,1005.15
2022-08-17T11:48:46.599Z,1005.15
2022-08-17T11:49:45.882Z,1005.13
2022-08-17T11:50:46.142Z,1005.09
2022-08-17T11:51:46.379Z,1005.05
2022-08-17T11:52:47.004Z,1005.08
2022-08-17T11:53:46.884Z,1005.09
2022-08-17T11:54:47.132Z,1005.06
2022-08-17T11:55:47.381Z,1004.96
2022-08-17T11:56:47.618Z,1004.97
2022-08-17T11:57:47.896Z,1004.97
2022-08-17T11:58:48.142Z,1004.98
2022-08-17T11:59:48.414Z,1005.07
2022-08-17T12:00:48.660Z,1004.98
2022-08-17T12:01:48.949Z,1005.01
2022-08-17T12:02:49.184Z,1005.05
2022-08-17T12:03:54.042Z,1005.04
2022-08-17T12:04:50.766Z,1005.05
2022-08-17T12:05:50.031Z,1005.02
2022-08-17T12:06:50.304Z,1005.03
2022-08-17T12:07:50.757Z,1005.04
2022-08-17T12:08:50.772Z,1005.07